Time;durP1;ratioP1;P1;durP2;ratioP2;P2;SDS_P1;SDS_P2;PMS_P1;PMS_P2;Temp;Humidity;BMP_temperature;BMP_pressure;BME280_temperature;BME280_humidity;BME280_pressure;Samples;Min_cycle;Max_cycle;Signal;HPM_P1;HPM_P2
2023/01/08 00:03:41;;;;;;;4.50;3.60;;;;;;;9.80;82.68;99430.41;10334861;28;20935;-61
2023/01/08 00:08:43;;;;;;;4.50;4.07;;;;;;;9.86;82.20;99429.88;10334656;28;20053;-61
2023/01/08 00:13:46;;;;;;;4.30;3.85;;;;;;;9.87;81.64;99425.41;10327550;28;20046;-61
2023/01/08 00:18:47;;;;;;;3.63;3.33;;;;;;;9.82;81.50;99412.53;10335231;28;20097;-61
2023/01/08 00:23:49;;;;;;;4.60;3.47;;;;;;;9.86;81.27;99399.78;10327639;28;20625;-61
2023/01/08 00:28:50;;;;;;;5.57;3.47;;;;;;;9.82;81.01;99375.31;10339103;28;20067;-62
2023/01/08 00:33:52;;;;;;;3.88;3.28;;;;;;;9.96;80.62;99382.03;10336474;28;20049;-61
2023/01/08 00:38:54;;;;;;;3.65;3.33;;;;;;;9.96;80.69;99383.84;10335770;28;20490;-61
2023/01/08 00:43:55;;;;;;;3.47;3.17;;;;;;;9.91;80.97;99363.84;10343032;28;20133;-61
2023/01/08 00:48:57;;;;;;;3.75;3.22;;;;;;;9.97;81.09;99366.91;10344025;28;20054;-61
2023/01/08 00:54:00;;;;;;;3.38;2.90;;;;;;;9.97;81.04;99366.91;10333845;28;20058;-61
2023/01/08 00:59:01;;;;;;;3.55;3.08;;;;;;;10.04;80.91;99365.38;10339585;28;20148;-61
2023/01/08 01:04:03;;;;;;;4.10;3.03;;;;;;;10.05;80.65;99359.06;10345131;28;20077;-62
2023/01/08 01:09:04;;;;;;;4.00;3.30;;;;;;;10.05;80.19;99349.25;10338527;28;20054;-61
2023/01/08 01:14:06;;;;;;;3.58;3.28;;;;;;;10.08;79.91;99353.47;10346766;28;20608;-65
2023/01/08 01:19:08;;;;;;;4.45;3.50;;;;;;;10.09;79.74;99355.16;10339881;28;20053;-62
2023/01/08 01:24:11;;;;;;;4.30;3.90;;;;;;;10.10;79.02;99356.81;10343828;28;20125;-66
2023/01/08 01:29:13;;;;;;;4.20;3.00;;;;;;;10.15;78.28;99359.03;10339130;28;20053;-62
2023/01/08 01:34:15;;;;;;;4.30;2.95;;;;;;;10.17;77.53;99351.78;10353663;28;21056;-62
2023/01/08 01:39:18;;;;;;;3.20;2.80;;;;;;;10.21;77.60;99359.31;10359112;28;20979;-61
2023/01/08 01:44:38;;;;;;;3.58;3.20;;;;;;;10.29;76.85;99365.75;10335508;28;20049;-65
2023/01/08 01:49:42;;;;;;;4.03;3.70;;;;;;;10.32;76.58;99368.97;10347330;28;20053;-62
2023/01/08 01:54:44;;;;;;;4.20;3.42;;;;;;;10.34;76.08;99366.19;10349318;28;20124;-61
2023/01/08 01:59:47;;;;;;;4.15;2.90;;;;;;;10.35;76.10;99355.41;10322180;28;20050;-61
2023/01/08 02:04:49;;;;;;;3.58;3.10;;;;;;;10.37;75.87;99356.13;10344445;28;20071;-61
2023/01/08 02:10:03;;;;;;;6.03;4.28;;;;;;;10.37;75.51;99357.91;10330911;28;20059;-61
2023/01/08 02:15:29;;;;;;;4.60;3.57;;;;;;;10.38;75.93;99359.59;10345078;28;20214;-61
2023/01/08 02:20:38;;;;;;;4.07;3.40;;;;;;;10.40;75.85;99360.28;10340703;28;20072;-61
2023/01/08 02:26:02;;;;;;;4.03;3.30;;;;;;;10.36;76.10;99353.59;10339989;28;20040;-61
2023/01/08 02:31:05;;;;;;;3.47;3.17;;;;;;;10.34;76.38;99348.38;10364597;28;20049;-61
2023/01/08 02:36:21;;;;;;;5.22;3.95;;;;;;;10.32;77.18;99339.69;10347964;28;20064;-61
2023/01/08 02:41:35;;;;;;;4.50;3.40;;;;;;;10.34;78.32;99335.09;10348584;28;20100;-64
2023/01/08 02:46:39;;;;;;;4.72;3.85;;;;;;;10.35;79.64;99339.44;10342285;28;20053;-61
2023/01/08 02:51:53;;;;;;;4.55;4.13;;;;;;;10.12;82.36;99332.75;10352783;28;20069;-61
2023/01/08 02:57:02;;;;;;;4.57;3.90;;;;;;;10.12;83.87;99325.63;10343162;28;20041;-62
2023/01/08 03:02:05;;;;;;;5.10;4.18;;;;;;;10.03;85.30;99310.53;10356870;28;20055;-61
2023/01/08 03:07:07;;;;;;;5.40;4.90;;;;;;;10.05;85.74;99303.25;10346605;28;20057;-61
2023/01/08 03:12:32;;;;;;;4.93;4.43;;;;;;;10.08;87.02;99300.28;10346153;28;20053;-61
2023/01/08 03:17:47;;;;;;;4.85;4.20;;;;;;;9.91;88.58;99297.38;10350590;28;20045;-61
2023/01/08 03:22:54;;;;;;;4.40;4.00;;;;;;;9.90;90.04;99292.22;10354165;28;20060;-62
2023/01/08 03:28:02;;;;;;;5.75;4.63;;;;;;;9.89;90.88;99291.38;10350606;28;20298;-62
2023/01/08 03:33:09;;;;;;;6.13;4.90;;;;;;;9.86;91.67;99291.66;10343246;28;20072;-61
2023/01/08 03:38:19;;;;;;;5.22;4.72;;;;;;;9.73;92.26;99280.50;10346223;28;20144;-61
2023/01/08 03:43:21;;;;;;;5.13;4.63;;;;;;;9.77;92.65;99276.56;10348108;28;21256;-61
2023/01/08 03:48:25;;;;;;;5.88;4.93;;;;;;;9.78;92.81;99264.94;10351640;28;20054;-61
2023/01/08 03:53:27;;;;;;;5.63;5.07;;;;;;;9.86;92.68;99269.53;10347177;28;21771;-61
2023/01/08 03:58:32;;;;;;;5.78;5.20;;;;;;;9.89;92.68;99262.13;10336019;28;20049;-61
2023/01/08 04:03:34;;;;;;;5.40;4.90;;;;;;;9.85;93.25;99246.63;10364049;28;20689;-61
2023/01/08 04:08:35;;;;;;;4.45;4.05;;;;;;;9.89;92.83;99237.34;10344351;28;20691;-61
2023/01/08 04:13:36;;;;;;;5.65;5.00;;;;;;;9.95;92.87;99235.94;10341317;28;20048;-61
2023/01/08 04:18:38;;;;;;;5.63;4.55;;;;;;;9.86;94.17;99232.34;10352736;28;20081;-61
2023/01/08 04:23:40;;;;;;;5.47;4.97;;;;;;;9.81;93.78;99218.66;10343548;28;20062;-61
2023/01/08 04:28:42;;;;;;;4.93;4.32;;;;;;;9.71;95.04;99224.84;10331020;28;20127;-61
2023/01/08 04:33:43;;;;;;;5.00;4.40;;;;;;;9.72;95.54;99215.03;10344471;28;20707;-61
2023/01/08 04:38:45;;;;;;;5.90;4.20;;;;;;;9.65;96.21;99203.28;10353573;28;20046;-61
2023/01/08 04:43:46;;;;;;;5.47;4.00;;;;;;;9.69;96.49;99205.50;10339659;28;20175;-61
2023/01/08 04:48:49;;;;;;;4.65;4.22;;;;;;;9.63;97.12;99210.56;10347448;28;20292;-61
2023/01/08 04:53:50;;;;;;;4.90;4.32;;;;;;;9.58;98.66;99202.19;10342203;28;20210;-61
2023/01/08 04:58:52;;;;;;;4.65;4.20;;;;;;;9.63;98.47;99205.25;10335900;28;20170;-61
2023/01/08 05:04:01;;;;;;;4.85;4.35;;;;;;;9.69;98.83;99199.38;10354827;28;20046;-61
2023/01/08 05:09:02;;;;;;;4.72;4.28;;;;;;;9.68;99.16;99187.91;10352580;28;20050;-61
2023/01/08 05:14:04;;;;;;;6.68;4.53;;;;;;;9.66;99.15;99183.72;10358188;28;20061;-61
2023/01/08 05:19:05;;;;;;;6.10;5.15;;;;;;;9.69;100.00;99184.25;10352758;28;20214;-61
2023/01/08 05:24:08;;;;;;;6.05;4.00;;;;;;;9.73;100.00;99184.81;10352614;28;20965;-61
2023/01/08 05:29:12;;;;;;;6.15;3.58;;;;;;;9.73;99.77;99184.81;10352853;28;20127;-61
2023/01/08 05:34:16;;;;;;;7.00;4.80;;;;;;;9.59;100.00;99194.06;10346227;28;20095;-64
2023/01/08 05:39:17;;;;;;;5.57;4.55;;;;;;;9.68;100.00;99185.25;10346949;28;20470;-61
2023/01/08 05:44:18;;;;;;;6.43;4.18;;;;;;;9.68;99.91;99187.06;10356310;28;20046;-61
2023/01/08 05:49:23;;;;;;;5.72;4.78;;;;;;;9.63;97.19;99198.13;10347201;28;20437;-60
2023/01/08 05:54:24;;;;;;;5.18;4.63;;;;;;;9.70;97.24;99196.56;10347885;28;20050;-61
2023/01/08 05:59:26;;;;;;;3.47;3.17;;;;;;;9.59;96.83;99179.94;10346965;28;20096;-61
2023/01/08 06:04:27;;;;;;;4.65;3.70;;;;;;;9.48;97.32;99192.41;10343161;28;20914;-61
2023/01/08 06:09:29;;;;;;;4.28;3.60;;;;;;;9.48;97.34;99186.28;10340330;28;20558;-61
2023/01/08 06:14:30;;;;;;;4.18;3.78;;;;;;;9.44;97.69;99196.31;10352632;28;20111;-61
2023/01/08 06:19:32;;;;;;;3.55;3.22;;;;;;;9.36;96.88;99188.25;10338907;28;20061;-60
2023/01/08 06:24:33;;;;;;;4.57;4.18;;;;;;;9.36;97.37;99189.06;10335635;28;20099;-61
2023/01/08 06:29:35;;;;;;;4.00;3.35;;;;;;;9.40;97.22;99199.41;10357124;28;20497;-61
2023/01/08 06:34:36;;;;;;;4.18;3.67;;;;;;;9.34;97.13;99185.72;10351853;28;20062;-61
2023/01/08 06:39:38;;;;;;;3.97;3.47;;;;;;;9.30;97.81;99183.50;10341000;28;20169;-64
2023/01/08 06:44:39;;;;;;;4.03;3.42;;;;;;;9.35;97.14;99186.56;10352459;28;20057;-61
2023/01/08 06:49:40;;;;;;;3.03;2.72;;;;;;;9.35;97.39;99181.25;10348396;28;20688;-61
2023/01/08 06:54:42;;;;;;;3.42;3.13;;;;;;;9.33;97.35;99185.88;10350389;28;20046;-61
2023/01/08 06:59:46;;;;;;;3.38;2.63;;;;;;;9.42;97.50;99192.16;10347798;28;20052;-61
2023/01/08 07:04:47;;;;;;;3.05;2.75;;;;;;;9.33;97.22;99207.13;10352278;28;20737;-61
2023/01/08 07:09:49;;;;;;;3.10;2.65;;;;;;;9.35;97.67;99194.53;10330721;28;20057;-61
2023/01/08 07:14:50;;;;;;;2.50;2.30;;;;;;;9.33;97.43;99189.34;10348344;28;20057;-60
2023/01/08 07:19:52;;;;;;;2.85;2.33;;;;;;;9.34;98.47;99200.84;10352853;28;20046;-61
2023/01/08 07:24:54;;;;;;;2.85;2.58;;;;;;;9.33;97.56;99210.59;10344065;28;20045;-61
2023/01/08 07:29:55;;;;;;;3.00;2.15;;;;;;;9.27;97.46;99220.97;10349158;28;20886;-61
2023/01/08 07:34:58;;;;;;;2.10;1.90;;;;;;;9.18;97.81;99206.72;10338613;28;20049;-61
2023/01/08 07:39:59;;;;;;;2.65;2.45;;;;;;;9.29;97.46;99200.41;10357254;28;20064;-62
2023/01/08 07:45:01;;;;;;;4.03;2.22;;;;;;;9.30;97.27;99212.72;10323891;28;20176;-62
2023/01/08 07:50:02;;;;;;;2.58;2.33;;;;;;;9.18;97.65;99202.22;10351371;28;20720;-60
2023/01/08 07:55:04;;;;;;;6.03;2.67;;;;;;;9.17;98.56;99200.56;10350733;28;20046;-60
2023/01/08 08:00:07;;;;;;;2.88;2.55;;;;;;;9.14;99.20;99202.66;10357497;28;20064;-62
2023/01/08 08:05:09;;;;;;;3.35;2.65;;;;;;;9.24;98.77;99202.66;10348732;28;20806;-60
2023/01/08 08:10:10;;;;;;;3.25;2.95;;;;;;;9.28;97.74;99212.03;10347271;28;20429;-60
2023/01/08 08:15:12;;;;;;;4.10;3.03;;;;;;;9.11;98.63;99211.75;10345929;28;20045;-60
2023/01/08 08:20:14;;;;;;;3.28;2.80;;;;;;;9.18;98.72;99204.88;10345781;28;20072;-60
2023/01/08 08:25:16;;;;;;;4.07;3.10;;;;;;;9.26;98.27;99198.03;10346161;28;20053;-60
2023/01/08 08:30:17;;;;;;;3.67;2.90;;;;;;;9.27;98.13;99205.88;10354339;28;20069;-61
2023/01/08 08:35:19;;;;;;;3.30;2.83;;;;;;;9.27;97.92;99210.34;10336746;28;20073;-60
2023/01/08 08:40:21;;;;;;;3.00;2.65;;;;;;;9.14;98.22;99211.47;10342564;28;20062;-60
2023/01/08 08:45:23;;;;;;;3.28;2.97;;;;;;;9.09;98.51;99219.00;10347304;28;20079;-59
2023/01/08 08:50:24;;;;;;;4.28;3.10;;;;;;;9.04;98.98;99210.63;10343889;28;20057;-61
2023/01/08 08:55:27;;;;;;;3.03;2.60;;;;;;;9.15;99.70;99212.31;10342462;28;20077;-60
2023/01/08 09:00:29;;;;;;;2.80;2.50;;;;;;;9.19;99.49;99203.91;10345605;28;20803;-64
2023/01/08 09:05:33;;;;;;;2.35;2.13;;;;;;;9.18;99.34;99202.22;10348489;28;20223;-63
2023/01/08 09:10:37;;;;;;;4.10;2.58;;;;;;;9.18;100.00;99198.75;10338836;28;20056;-60
2023/01/08 09:15:39;;;;;;;3.05;2.70;;;;;;;9.14;100.00;99202.66;10344774;28;20058;-61
2023/01/08 09:20:41;;;;;;;3.90;3.35;;;;;;;9.17;100.00;99205.88;10335484;28;20061;-59
2023/01/08 09:25:43;;;;;;;3.28;2.97;;;;;;;9.20;100.00;99199.44;10337955;28;20065;-60
2023/01/08 09:30:44;;;;;;;3.03;2.72;;;;;;;9.27;100.00;99205.03;10360878;28;20545;-60
2023/01/08 09:35:47;;;;;;;4.15;3.20;;;;;;;9.35;99.99;99215.78;10345929;28;20085;-60
2023/01/08 09:41:00;;;;;;;3.42;2.88;;;;;;;9.40;98.99;99210.91;10357416;28;20065;-60
2023/01/08 09:46:04;;;;;;;3.75;3.20;;;;;;;9.32;100.00;99213.41;10354555;28;20054;-60
2023/01/08 09:51:11;;;;;;;3.50;3.20;;;;;;;9.34;99.99;99214.94;10350907;28;20877;-60
2023/01/08 09:56:17;;;;;;;4.20;3.35;;;;;;;9.36;99.62;99212.16;10359890;28;20045;-60
2023/01/08 10:01:22;;;;;;;3.25;2.95;;;;;;;9.32;99.78;99211.59;10342063;28;20079;-61
2023/01/08 10:06:25;;;;;;;4.40;3.58;;;;;;;9.30;100.00;99199.44;10358974;28;20049;-60
2023/01/08 10:11:33;;;;;;;3.65;3.35;;;;;;;9.35;100.00;99213.13;10351475;28;20062;-61
2023/01/08 10:16:36;;;;;;;2.78;2.47;;;;;;;9.42;100.00;99208.94;10315762;28;20060;-60
2023/01/08 10:21:40;;;;;;;5.03;3.13;;;;;;;9.38;100.00;99194.25;10347002;28;20053;-60
2023/01/08 10:26:42;;;;;;;4.95;3.42;;;;;;;9.37;100.00;99189.94;10350566;28;20399;-61
2023/01/08 10:31:54;;;;;;;3.63;3.10;;;;;;;9.42;100.00;99177.06;10340851;28;20183;-60
2023/01/08 10:36:55;;;;;;;5.07;4.68;;;;;;;9.42;100.00;99177.06;10356271;28;20713;-60
2023/01/08 10:42:04;;;;;;;16.17;14.82;;;;;;;9.59;100.00;99166.66;10346433;28;20050;-60
2023/01/08 10:47:06;;;;;;;7.72;7.05;;;;;;;9.62;99.37;99166.38;10342423;28;20234;-60
2023/01/08 10:52:31;;;;;;;10.13;9.23;;;;;;;9.53;100.00;99160.97;10360326;28;20713;-60
2023/01/08 10:57:33;;;;;;;15.50;14.10;;;;;;;9.75;98.85;99155.44;10345693;28;20112;-60
2023/01/08 11:02:38;;;;;;;11.68;10.68;;;;;;;10.02;96.09;99141.34;10338537;28;20064;-60
2023/01/08 11:07:40;;;;;;;5.60;4.47;;;;;;;10.30;94.93;99141.31;10357375;28;20350;-59
2023/01/08 11:12:43;;;;;;;4.25;3.85;;;;;;;10.79;90.50;99133.88;10352196;28;20045;-60
2023/01/08 11:17:45;;;;;;;9.35;8.63;;;;;;;11.23;86.50;99135.75;10328464;28;20048;-60
2023/01/08 11:22:47;;;;;;;7.65;6.95;;;;;;;14.63;69.95;99113.47;10337344;28;20097;-60
2023/01/08 11:27:51;;;;;;;3.47;3.17;;;;;;;18.38;56.74;99122.00;10350627;28;20110;-61
2023/01/08 11:33:17;;;;;;;4.15;3.85;;;;;;;20.13;49.29;99091.31;10346692;28;20558;-59
2023/01/08 11:38:18;;;;;;;3.70;3.40;;;;;;;16.49;59.24;99085.03;10348439;28;20132;-58
2023/01/08 11:43:26;;;;;;;2.50;2.15;;;;;;;14.74;65.17;99075.56;10348102;28;21564;-58
2023/01/08 11:48:56;;;;;;;2.60;2.20;;;;;;;13.67;69.08;99075.28;10343261;28;20368;-59
2023/01/08 11:54:37;;;;;;;2.33;2.13;;;;;;;12.80;73.67;99059.84;10348600;28;20058;-61
2023/01/08 12:00:01;;;;;;;1.80;1.52;;;;;;;12.21;77.21;99055.47;10322754;28;20127;-61
2023/01/08 12:05:23;;;;;;;2.13;1.90;;;;;;;11.82;79.66;99035.47;10339036;28;20053;-63
2023/01/08 12:10:31;;;;;;;4.32;3.92;;;;;;;11.76;80.62;99033.44;10350630;28;20052;-61
2023/01/08 12:16:06;;;;;;;2.17;1.73;;;;;;;11.32;82.00;99029.09;10349330;28;20057;-60
2023/01/08 12:21:13;;;;;;;;;;;;;;;11.29;82.58;99025.91;10346580;28;20782;-60
2023/01/08 12:26:33;;;;;;;4.05;2.17;;;;;;;11.20;83.22;99003.72;10338596;28;19932;-61
2023/01/08 12:31:50;;;;;;;4.50;3.45;;;;;;;11.11;84.21;99010.81;10344350;28;20540;-62
2023/01/08 12:37:30;;;;;;;11.38;8.63;;;;;;;10.95;84.97;99000.06;10344208;28;20607;-60
2023/01/08 12:42:35;;;;;;;7.00;4.40;;;;;;;10.95;85.42;99003.56;10344556;28;20797;-61
2023/01/08 12:47:39;;;;;;;4.32;2.75;;;;;;;10.99;84.10;98995.25;10351476;28;20463;-60
2023/01/08 12:52:52;;;;;;;18.27;10.00;;;;;;;11.11;84.08;98983.38;10343117;28;20049;-60
2023/01/08 12:58:17;;;;;;;8.57;4.90;;;;;;;11.27;83.01;98977.28;10358710;28;20653;-62
2023/01/08 13:03:24;;;;;;;1.98;1.73;;;;;;;11.19;83.44;98963.94;10343845;28;20045;-62
2023/01/08 13:08:33;;;;;;;2.67;1.40;;;;;;;11.18;83.69;98962.25;10345881;28;20049;-61
2023/01/08 13:13:43;;;;;;;3.03;1.42;;;;;;;10.91;83.29;98956.13;10334553;28;20064;-68
2023/01/08 13:18:59;;;;;;;1.70;1.40;;;;;;;10.70;84.65;98962.63;10349932;28;20319;-61
2023/01/08 13:24:03;;;;;;;1.52;1.42;;;;;;;10.72;84.78;98950.03;10335661;28;20150;-65
2023/01/08 13:29:25;;;;;;;1.77;1.48;;;;;;;10.72;85.35;98957.16;10358966;28;20053;-64
2023/01/08 13:34:38;;;;;;;2.00;1.20;;;;;;;10.65;85.23;98950.81;10348936;28;20045;-63
2023/01/08 13:39:40;;;;;;;1.98;1.45;;;;;;;10.60;85.60;98944.13;10352530;28;20152;-63
2023/01/08 13:45:01;;;;;;;2.92;2.00;;;;;;;10.50;85.18;98943.38;10342313;28;20729;-63
2023/01/08 13:50:13;;;;;;;7.35;2.42;;;;;;;10.55;85.65;98948.22;10345102;28;20464;-62
2023/01/08 13:55:40;;;;;;;3.28;1.50;;;;;;;10.50;85.70;98938.06;10333803;28;20100;-65
2023/01/08 14:00:42;;;;;;;5.35;2.53;;;;;;;10.43;86.33;98929.88;10337197;28;20942;-63
2023/01/08 14:05:43;;;;;;;1.60;1.17;;;;;;;10.40;86.39;98924.00;10351109;28;20056;-63
2023/01/08 14:10:45;;;;;;;2.45;1.95;;;;;;;10.36;86.62;98909.38;10346859;28;20701;-62
2023/01/08 14:15:47;;;;;;;1.20;1.10;;;;;;;10.42;86.99;98920.22;10344296;28;20132;-63
2023/01/08 14:20:50;;;;;;;2.83;1.85;;;;;;;10.42;87.41;98912.22;10340372;28;20053;-63
2023/01/08 14:25:52;;;;;;;2.85;1.77;;;;;;;10.57;87.45;98901.84;10353211;28;20059;-63
2023/01/08 14:30:55;;;;;;;2.92;2.58;;;;;;;10.71;86.48;98903.09;10352195;28;20049;-63
2023/01/08 14:35:59;;;;;;;2.65;2.13;;;;;;;10.55;85.81;98909.16;10348447;28;20054;-62
2023/01/08 14:41:08;;;;;;;3.15;1.90;;;;;;;10.58;87.08;98908.84;10342454;28;20132;-64
2023/01/08 14:46:23;;;;;;;2.13;1.40;;;;;;;10.52;86.69;98909.44;10348939;28;20069;-62
2023/01/08 14:51:29;;;;;;;2.35;2.15;;;;;;;10.50;87.13;98916.75;10338329;28;20459;-62
2023/01/08 14:56:33;;;;;;;2.63;1.40;;;;;;;10.35;87.54;98886.41;10343382;28;20725;-62
2023/01/08 15:01:35;;;;;;;2.50;1.50;;;;;;;10.29;88.40;98893.16;10333163;28;20056;-62
2023/01/08 15:06:37;;;;;;;2.90;1.50;;;;;;;10.41;88.15;98878.63;10344049;28;20410;-63
2023/01/08 15:11:51;;;;;;;3.22;1.60;;;;;;;10.33;88.58;98883.00;10340738;28;20140;-62
2023/01/08 15:16:56;;;;;;;1.87;1.63;;;;;;;10.17;89.02;98868.63;10343305;28;20100;-63
2023/01/08 15:22:00;;;;;;;2.63;1.55;;;;;;;10.12;89.78;98862.09;10343512;28;20045;-62
2023/01/08 15:27:13;;;;;;;5.60;3.80;;;;;;;10.04;90.28;98860.22;10344022;28;20049;-62
2023/01/08 15:32:14;;;;;;;3.28;2.40;;;;;;;10.02;90.56;98865.69;10350092;28;20127;-67
2023/01/08 15:37:16;;;;;;;3.08;1.50;;;;;;;9.88;91.13;98864.41;10356520;28;20053;-62
2023/01/08 15:47:48;;;;;;;2.55;1.60;;;;;;;9.72;93.04;98858.94;10338140;28;20147;-62
2023/01/08 15:52:50;;;;;;;2.33;1.85;;;;;;;9.73;93.47;98860.63;10342844;28;21090;-63
2023/01/08 15:57:51;;;;;;;2.58;1.77;;;;;;;9.74;93.52;98856.97;10354065;28;20053;-63
2023/01/08 16:02:54;;;;;;;3.42;2.55;;;;;;;9.71;93.69;98842.19;10349241;28;20057;-63
2023/01/08 16:07:56;;;;;;;3.17;2.00;;;;;;;9.61;94.28;98845.88;10358204;28;20056;-62
2023/01/08 16:12:59;;;;;;;3.08;2.55;;;;;;;9.57;94.46;98845.34;10347277;28;20037;-61
2023/01/08 16:18:00;;;;;;;3.50;2.03;;;;;;;9.54;94.62;98835.88;10351394;28;20721;-66
2023/01/08 16:23:02;;;;;;;3.70;2.42;;;;;;;9.62;94.13;98836.94;10350160;28;20070;-61
2023/01/08 16:28:04;;;;;;;3.97;2.88;;;;;;;9.68;93.45;98831.84;10347984;28;21145;-62
2023/01/08 16:33:05;;;;;;;2.65;2.25;;;;;;;9.73;92.98;98815.47;10353167;28;20099;-61
2023/01/08 16:38:07;;;;;;;2.28;2.08;;;;;;;9.65;93.56;98821.53;10359682;28;21182;-63
2023/01/08 16:43:11;;;;;;;2.17;1.97;;;;;;;9.64;93.05;98816.38;10334921;28;20179;-66
2023/01/08 16:48:13;;;;;;;2.30;1.60;;;;;;;9.62;93.06;98810.38;10351036;28;20782;-62
2023/01/08 16:53:16;;;;;;;2.58;1.90;;;;;;;9.60;93.14;98809.69;10348232;28;20053;-63
2023/01/08 16:58:18;;;;;;;2.53;1.90;;;;;;;9.57;92.81;98808.16;10345893;28;20607;-61
2023/01/08 17:03:21;;;;;;;3.17;2.83;;;;;;;9.46;93.49;98795.97;10339666;28;20045;-61
2023/01/08 17:08:26;;;;;;;5.40;4.05;;;;;;;9.51;92.86;98790.19;10367672;28;20053;-62
2023/01/08 17:13:27;;;;;;;11.10;9.00;;;;;;;9.44;92.82;98781.16;10364382;28;20056;-62
2023/01/08 17:18:29;;;;;;;13.02;10.23;;;;;;;9.44;92.75;98775.84;10353550;28;20670;-61
2023/01/08 17:23:32;;;;;;;9.52;7.60;;;;;;;9.51;92.01;98777.72;10348026;28;20057;-62
2023/01/08 17:28:33;;;;;;;6.80;5.43;;;;;;;9.66;91.16;98774.53;10356633;28;21446;-62
2023/01/08 17:33:36;;;;;;;3.47;3.17;;;;;;;9.66;90.52;98767.38;10355487;28;20619;-62
2023/01/08 17:38:38;;;;;;;2.85;2.53;;;;;;;9.65;89.66;98763.09;10357885;28;20053;-61
2023/01/08 17:43:40;;;;;;;3.90;2.05;;;;;;;9.70;89.42;98755.47;10354090;28;20139;-61
2023/01/08 17:48:43;;;;;;;4.15;2.97;;;;;;;9.77;88.75;98750.34;10349205;28;20201;-62
2023/01/08 17:53:45;;;;;;;1.85;1.70;;;;;;;9.75;88.39;98746.22;10332558;28;20160;-60
2023/01/08 17:58:48;;;;;;;1.85;1.58;;;;;;;9.76;88.04;98737.22;10362349;28;20834;-60
2023/01/08 18:03:51;;;;;;;2.40;1.58;;;;;;;9.80;87.30;98730.63;10361458;28;20564;-60
2023/01/08 18:08:53;;;;;;;3.25;1.92;;;;;;;9.83;87.16;98722.34;10340792;28;20592;-61
2023/01/08 18:13:59;;;;;;;2.83;1.65;;;;;;;9.80;87.19;98723.47;10346280;28;20289;-61
2023/01/08 18:19:00;;;;;;;2.60;2.05;;;;;;;9.76;87.44;98706.19;10350975;28;20153;-61
2023/01/08 18:24:02;;;;;;;2.47;1.92;;;;;;;9.64;87.40;98697.66;10326333;28;20952;-62
2023/01/08 18:29:04;;;;;;;2.05;1.77;;;;;;;9.58;88.06;98702.72;10352578;28;20501;-61
2023/01/08 18:34:11;;;;;;;2.30;1.65;;;;;;;9.59;87.98;98681.31;10351177;28;20052;-62
2023/01/08 18:39:13;;;;;;;2.75;1.15;;;;;;;9.53;88.00;98687.25;10347932;28;20088;-61
2023/01/08 18:44:15;;;;;;;2.47;1.80;;;;;;;9.48;88.36;98693.03;10324375;28;20057;-61
2023/01/08 18:49:17;;;;;;;2.38;1.98;;;;;;;9.48;88.39;98687.72;10339970;28;21186;-61
2023/01/08 18:54:19;;;;;;;3.25;2.33;;;;;;;9.50;88.22;98688.44;10332482;28;20049;-60
2023/01/08 18:59:23;;;;;;;3.70;2.80;;;;;;;9.58;87.90;98697.41;10348301;28;20258;-65
2023/01/08 19:04:24;;;;;;;13.07;12.18;;;;;;;9.62;88.05;98688.97;10342797;28;20053;-61
2023/01/08 19:09:26;;;;;;;5.22;2.80;;;;;;;9.71;86.78;98679.25;10336591;28;20053;-61
2023/01/08 19:14:28;;;;;;;20.83;18.83;;;;;;;9.76;87.74;98671.66;10356500;28;20058;-54
2023/01/08 19:19:29;;;;;;;3.75;2.63;;;;;;;9.77;87.00;98665.31;10346570;28;20659;-54
2023/01/08 19:24:35;;;;;;;4.63;4.22;;;;;;;9.73;86.43;98648.88;10353561;28;20115;-61
2023/01/08 19:29:37;;;;;;;4.85;4.43;;;;;;;9.79;86.23;98660.72;10360247;28;20049;-63
2023/01/08 19:34:39;;;;;;;5.57;5.13;;;;;;;9.80;85.87;98659.69;10356340;28;20571;-63
2023/01/08 19:39:41;;;;;;;2.78;2.58;;;;;;;9.82;85.61;98641.78;10347233;28;20061;-61
2023/01/08 19:44:43;;;;;;;2.35;1.88;;;;;;;9.83;85.71;98634.63;10349941;28;20057;-61
2023/01/08 19:49:47;;;;;;;2.53;1.50;;;;;;;9.85;85.77;98625.53;10295900;28;20053;-60
2023/01/08 19:54:50;;;;;;;;;;;;;;;9.82;85.26;98609.06;10319672;28;20042;-61
2023/01/08 19:59:51;;;;;;;2.10;1.30;;;;;;;9.75;85.45;98592.91;10330254;28;19924;-61
2023/01/08 20:04:53;;;;;;;1.40;1.20;;;;;;;9.78;85.12;98589.94;10345061;28;20063;-60
2023/01/08 20:09:54;;;;;;;2.03;1.40;;;;;;;9.78;85.09;98581.97;10331530;28;21250;-61
2023/01/08 20:14:56;;;;;;;2.40;1.55;;;;;;;9.74;85.30;98570.00;10319445;28;20108;-61
2023/01/08 20:19:58;;;;;;;2.47;1.80;;;;;;;9.66;85.34;98562.81;10364768;28;20089;-62
2023/01/08 20:25:03;;;;;;;2.10;1.65;;;;;;;9.62;86.04;98555.31;10344215;28;20074;-61
2023/01/08 20:30:07;;;;;;;;;;;;;;;9.63;85.83;98552.50;10367310;28;20144;-65
2023/01/08 20:35:08;;;;;;;2.08;1.50;;;;;;;9.70;85.75;98550.88;10349830;28;19936;-63
2023/01/08 20:40:10;;;;;;;1.90;1.10;;;;;;;9.69;85.22;98556.34;10341738;28;20440;-63
2023/01/08 20:45:13;;;;;;;1.65;1.20;;;;;;;9.71;85.31;98544.59;10348726;28;20049;-62
2023/01/08 20:50:15;;;;;;;1.90;1.30;;;;;;;9.65;85.58;98523.97;10329966;28;20506;-61
2023/01/08 20:55:20;;;;;;;1.60;1.17;;;;;;;9.58;85.94;98520.28;10328130;28;20045;-59
2023/01/08 21:00:24;;;;;;;1.80;1.50;;;;;;;9.60;85.81;98520.13;10335123;28;20135;-61
2023/01/08 21:05:26;;;;;;;2.97;1.38;;;;;;;9.66;85.66;98508.84;10347864;28;20061;-61
2023/01/08 21:10:29;;;;;;;2.97;1.45;;;;;;;9.68;85.17;98497.09;10265870;28;20069;-61
2023/01/08 21:15:35;;;;;;;2.22;1.20;;;;;;;9.70;84.89;98484.47;10336391;28;21485;-63
2023/01/08 21:20:42;;;;;;;1.67;1.15;;;;;;;9.71;84.69;98483.47;10351093;28;20135;-60
2023/01/08 21:25:43;;;;;;;1.42;1.05;;;;;;;9.70;84.58;98476.50;10348315;28;20103;-60
2023/01/08 21:30:45;;;;;;;3.00;1.35;;;;;;;9.68;84.95;98477.63;10330897;28;20045;-61
2023/01/08 21:35:47;;;;;;;2.03;1.23;;;;;;;9.73;84.66;98462.88;10335482;28;20065;-60
2023/01/08 21:40:58;;;;;;;2.00;1.60;;;;;;;9.76;84.59;98445.78;10311399;28;20061;-61
2023/01/08 21:46:01;;;;;;;2.15;1.48;;;;;;;9.74;84.83;98447.75;10318952;28;20053;-61
2023/01/08 21:51:03;;;;;;;4.72;1.60;;;;;;;9.77;84.58;98436.81;10330116;28;20053;-65
2023/01/08 21:56:05;;;;;;;2.78;1.40;;;;;;;9.79;83.95;98424.22;10358944;28;20057;-61
2023/01/08 22:01:08;;;;;;;1.85;1.35;;;;;;;9.75;85.34;98416.72;10328714;28;20102;-60
2023/01/08 22:06:12;;;;;;;3.03;1.58;;;;;;;9.71;85.84;98400.25;10346729;28;20099;-61
2023/01/08 22:11:14;;;;;;;1.77;1.40;;;;;;;9.74;86.05;98384.00;10360992;28;20107;-62
2023/01/08 22:16:16;;;;;;;2.28;1.40;;;;;;;9.75;86.16;98372.38;10364360;28;20080;-63
2023/01/08 22:21:17;;;;;;;1.85;1.50;;;;;;;9.72;86.28;98364.75;10325238;28;20056;-61
2023/01/08 22:26:19;;;;;;;2.67;1.70;;;;;;;9.67;86.73;98367.06;10351942;28;20107;-62
2023/01/08 22:31:22;;;;;;;1.75;1.13;;;;;;;9.68;86.03;98352.78;10330506;28;20041;-60
2023/01/08 22:36:25;;;;;;;1.60;1.37;;;;;;;9.67;86.16;98346.63;10346135;28;20045;-62
2023/01/08 22:41:27;;;;;;;2.35;1.70;;;;;;;9.67;85.77;98345.81;10357189;28;21532;-61
2023/01/08 22:46:31;;;;;;;2.15;1.70;;;;;;;9.59;86.05;98333.31;10335205;28;20950;-62
2023/01/08 22:51:32;;;;;;;1.43;1.13;;;;;;;9.59;86.05;98316.56;10339204;28;20424;-64
2023/01/08 22:56:34;;;;;;;2.65;1.63;;;;;;;9.59;85.62;98312.09;10356399;28;20587;-66
2023/01/08 23:01:35;;;;;;;1.27;1.17;;;;;;;9.55;86.04;98303.63;10345629;28;20126;-61
2023/01/08 23:06:39;;;;;;;1.75;1.65;;;;;;;9.60;85.35;98307.63;10355850;28;20045;-65
2023/01/08 23:11:42;;;;;;;2.00;1.55;;;;;;;9.55;85.87;98305.47;10351785;28;20056;-61
2023/01/08 23:16:45;;;;;;;2.75;1.73;;;;;;;9.46;85.97;98296.66;10330811;28;20045;-64
2023/01/08 23:21:49;;;;;;;3.97;1.90;;;;;;;9.48;86.39;98289.34;10355721;28;20050;-61
2023/01/08 23:26:51;;;;;;;1.50;1.40;;;;;;;9.46;87.34;98296.66;10320436;28;20058;-61
2023/01/08 23:31:55;;;;;;;1.88;1.40;;;;;;;9.44;87.97;98288.00;10340509;28;20705;-65
2023/01/08 23:36:56;;;;;;;2.05;1.10;;;;;;;9.37;89.24;98295.78;10341291;28;20116;-62
2023/01/08 23:41:58;;;;;;;1.73;1.35;;;;;;;9.26;90.66;98292.63;10344759;28;20085;-62
2023/01/08 23:46:59;;;;;;;2.28;1.92;;;;;;;9.22;92.45;98294.78;10363173;28;20053;-61
2023/01/08 23:52:01;;;;;;;4.18;1.38;;;;;;;9.19;93.53;98289.81;10325167;28;20054;-61
2023/01/08 23:57:05;;;;;;;1.77;1.50;;;;;;;9.14;95.02;98284.97;10356012;28;20132;-61
